Time;durP1;ratioP1;P1;durP2;ratioP2;P2;SDS_P1;SDS_P2;PMS_P1;PMS_P2;Temp;Humidity;BMP_temperature;BMP_pressure;BME280_temperature;BME280_humidity;BME280_pressure;Samples;Min_cycle;Max_cycle;Signal;HPM_P1;HPM_P2
2022/12/06 00:01:13;;;;;;;3.65;2.40;;;;;;;;;;5062360;28;20029;-43
2022/12/06 00:03:40;;;;;;;5.82;2.30;;;;;;;;;;5064045;28;20039;-44
2022/12/06 00:06:11;;;;;;;2.97;2.00;;;;;;;;;;5071496;28;20024;-43
2022/12/06 00:08:38;;;;;;;2.58;1.92;;;;;;;;;;5062596;28;20021;-44
2022/12/06 00:11:08;;;;;;;2.30;1.92;;;;;;;;;;5071528;28;20067;-44
2022/12/06 00:13:35;;;;;;;2.75;2.22;;;;;;;;;;5073361;28;20354;-43
2022/12/06 00:16:05;;;;;;;3.35;2.20;;;;;;;;;;5073391;28;20425;-47
2022/12/06 00:18:35;;;;;;;3.08;2.05;;;;;;;;;;5066861;28;20036;-44
2022/12/06 00:21:15;;;;;;;2.70;2.38;;;;;;;;;;5068587;28;20025;-45
2022/12/06 00:23:42;;;;;;;4.03;2.95;;;;;;;;;;5073378;28;20027;-43
2022/12/06 00:26:09;;;;;;;2.40;1.92;;;;;;;;;;5072687;28;20021;-44
2022/12/06 00:28:36;;;;;;;2.72;1.98;;;;;;;;;;5073983;28;20537;-44
2022/12/06 00:31:03;;;;;;;4.00;2.28;;;;;;;;;;5071596;28;20529;-44
2022/12/06 00:33:29;;;;;;;2.60;1.98;;;;;;;;;;5062184;28;20036;-43
2022/12/06 00:35:59;;;;;;;2.83;2.20;;;;;;;;;;5070227;28;20021;-44
2022/12/06 00:38:26;;;;;;;3.28;2.08;;;;;;;;;;5068971;28;20103;-43
2022/12/06 00:41:02;;;;;;;2.95;2.22;;;;;;;;;;5056540;28;20064;-44
2022/12/06 00:43:29;;;;;;;2.75;1.90;;;;;;;;;;5087589;28;20404;-43
2022/12/06 00:45:55;;;;;;;3.25;2.10;;;;;;;;;;5073725;28;20089;-43
2022/12/06 00:48:21;;;;;;;2.80;2.00;;;;;;;;;;5071432;28;20096;-45
2022/12/06 00:50:47;;;;;;;3.50;2.20;;;;;;;;;;5065192;28;20060;-43
2022/12/06 00:53:13;;;;;;;4.18;2.83;;;;;;;;;;5070356;28;20087;-43
2022/12/06 00:55:39;;;;;;;3.03;2.30;;;;;;;;;;5073211;28;20074;-43
2022/12/06 00:58:05;;;;;;;2.33;1.80;;;;;;;;;;5068721;28;20066;-43
2022/12/06 01:00:31;;;;;;;2.35;1.92;;;;;;;;;;5070832;28;20032;-44
2022/12/06 01:02:57;;;;;;;2.65;2.03;;;;;;;;;;5061550;28;20028;-46
2022/12/06 01:05:23;;;;;;;2.55;1.98;;;;;;;;;;5072643;28;20032;-43
2022/12/06 01:07:49;;;;;;;3.42;2.05;;;;;;;;;;5071967;28;20028;-44
2022/12/06 01:10:15;;;;;;;2.00;1.70;;;;;;;;;;5064143;28;20035;-43
2022/12/06 01:12:41;;;;;;;3.60;2.47;;;;;;;;;;5073222;28;20017;-43
2022/12/06 01:15:08;;;;;;;3.10;2.20;;;;;;;;;;5063581;28;20024;-43
2022/12/06 01:17:34;;;;;;;2.47;2.28;;;;;;;;;;5072381;28;20027;-44
2022/12/06 01:20:00;;;;;;;3.10;2.33;;;;;;;;;;5063627;28;20052;-45
2022/12/06 01:22:26;;;;;;;2.67;1.85;;;;;;;;;;5071854;28;20059;-43
2022/12/06 01:24:52;;;;;;;2.45;2.00;;;;;;;;;;5072311;28;20039;-43
2022/12/06 01:27:18;;;;;;;2.67;2.05;;;;;;;;;;5067265;28;20020;-43
2022/12/06 01:29:44;;;;;;;2.63;1.95;;;;;;;;;;5072847;28;20491;-43
2022/12/06 01:32:10;;;;;;;2.22;1.60;;;;;;;;;;5067792;28;20045;-43
2022/12/06 01:34:36;;;;;;;2.95;2.30;;;;;;;;;;5072716;28;20052;-44
2022/12/06 01:37:02;;;;;;;2.47;1.90;;;;;;;;;;5069786;28;20024;-44
2022/12/06 01:39:28;;;;;;;3.03;2.03;;;;;;;;;;5071729;28;20032;-43
2022/12/06 01:41:54;;;;;;;2.70;2.00;;;;;;;;;;5071521;28;20455;-43
2022/12/06 01:44:39;;;;;;;2.60;1.75;;;;;;;;;;5071734;28;20397;-43
2022/12/06 01:47:06;;;;;;;2.00;1.80;;;;;;;;;;5054785;28;20044;-44
2022/12/06 01:49:33;;;;;;;2.88;2.20;;;;;;;;;;5068764;28;20184;-44
2022/12/06 01:52:01;;;;;;;2.33;1.70;;;;;;;;;;5071127;28;20363;-46
2022/12/06 01:54:27;;;;;;;2.40;1.77;;;;;;;;;;5071579;28;20056;-43
2022/12/06 01:56:54;;;;;;;2.40;2.00;;;;;;;;;;5072221;28;20021;-43
2022/12/06 01:59:21;;;;;;;2.10;1.55;;;;;;;;;;5071297;28;20078;-43
2022/12/06 02:01:47;;;;;;;2.58;2.03;;;;;;;;;;5067991;28;20021;-43
2022/12/06 02:04:14;;;;;;;2.30;1.63;;;;;;;;;;5063599;28;20032;-44
2022/12/06 02:06:41;;;;;;;2.38;1.80;;;;;;;;;;5071292;28;20150;-44
2022/12/06 02:09:08;;;;;;;2.17;1.92;;;;;;;;;;5072115;28;20024;-43
2022/12/06 02:11:35;;;;;;;2.38;1.80;;;;;;;;;;5070192;28;20025;-43
2022/12/06 02:14:02;;;;;;;2.10;1.48;;;;;;;;;;5071031;28;20035;-45
2022/12/06 02:16:44;;;;;;;1.98;1.63;;;;;;;;;;5060987;28;20021;-43
2022/12/06 02:19:30;;;;;;;1.85;1.38;;;;;;;;;;5069383;28;20051;-46
2022/12/06 02:21:56;;;;;;;2.58;1.67;;;;;;;;;;5068101;28;20028;-46
2022/12/06 02:24:30;;;;;;;2.33;1.60;;;;;;;;;;5071730;28;20043;-43
2022/12/06 02:27:12;;;;;;;2.70;1.95;;;;;;;;;;5058001;28;20035;-46
2022/12/06 02:29:51;;;;;;;3.10;2.00;;;;;;;;;;5071863;28;20370;-43
2022/12/06 02:32:17;;;;;;;2.78;1.67;;;;;;;;;;5051358;28;20652;-43
2022/12/06 02:34:43;;;;;;;4.72;2.40;;;;;;;;;;5061887;28;20123;-44
2022/12/06 02:37:15;;;;;;;2.60;1.50;;;;;;;;;;5061378;28;20099;-43
2022/12/06 02:39:47;;;;;;;3.13;2.15;;;;;;;;;;5070813;28;20428;-44
2022/12/06 02:42:16;;;;;;;1.77;1.40;;;;;;;;;;5069340;28;20035;-44
2022/12/06 02:45:05;;;;;;;2.15;1.48;;;;;;;;;;5071764;28;20035;-43
2022/12/06 02:47:33;;;;;;;2.47;1.85;;;;;;;;;;5065212;28;20385;-43
2022/12/06 02:50:00;;;;;;;1.92;1.52;;;;;;;;;;5071194;28;20017;-45
2022/12/06 02:52:27;;;;;;;2.38;1.35;;;;;;;;;;5064915;28;20035;-44
2022/12/06 02:54:57;;;;;;;2.15;1.42;;;;;;;;;;5077974;28;20390;-44
2022/12/06 02:57:34;;;;;;;2.47;1.60;;;;;;;;;;5070990;28;20021;-43
2022/12/06 03:00:00;;;;;;;2.45;1.50;;;;;;;;;;5058726;28;20347;-46
2022/12/06 03:02:26;;;;;;;1.98;1.63;;;;;;;;;;5065480;28;20083;-45
2022/12/06 03:05:09;;;;;;;2.70;2.20;;;;;;;;;;5070924;28;20068;-43
2022/12/06 03:07:40;;;;;;;2.28;1.80;;;;;;;;;;5070986;28;20031;-43
2022/12/06 03:10:16;;;;;;;1.95;1.50;;;;;;;;;;5070343;28;20025;-45
2022/12/06 03:13:05;;;;;;;2.20;1.60;;;;;;;;;;5063936;28;20029;-43
2022/12/06 03:15:47;;;;;;;2.80;1.60;;;;;;;;;;5063052;28;20041;-43
2022/12/06 03:18:25;;;;;;;2.22;1.88;;;;;;;;;;5070097;28;20100;-43
2022/12/06 03:20:54;;;;;;;2.28;1.60;;;;;;;;;;5066082;28;20073;-43
2022/12/06 03:23:23;;;;;;;1.90;1.70;;;;;;;;;;5056868;28;20039;-43
2022/12/06 03:25:50;;;;;;;1.77;1.42;;;;;;;;;;5071441;28;20027;-43
2022/12/06 03:28:17;;;;;;;2.25;1.48;;;;;;;;;;5072497;28;20021;-43
2022/12/06 03:30:45;;;;;;;2.60;1.55;;;;;;;;;;5066854;28;20123;-43
2022/12/06 03:33:12;;;;;;;1.88;1.40;;;;;;;;;;5072573;28;20035;-44
2022/12/06 03:35:38;;;;;;;2.75;2.10;;;;;;;;;;5066095;28;20478;-43
2022/12/06 03:38:09;;;;;;;2.33;1.48;;;;;;;;;;5073469;28;20053;-44
2022/12/06 03:40:37;;;;;;;2.30;1.70;;;;;;;;;;5074967;28;20049;-44
2022/12/06 03:43:04;;;;;;;2.22;1.23;;;;;;;;;;5061065;28;20370;-43
2022/12/06 03:45:38;;;;;;;2.25;1.50;;;;;;;;;;5053291;28;20021;-44
2022/12/06 03:48:09;;;;;;;2.58;1.50;;;;;;;;;;5070633;28;20580;-43
2022/12/06 03:50:38;;;;;;;2.92;1.90;;;;;;;;;;5075309;28;20374;-43
2022/12/06 03:53:04;;;;;;;1.80;1.40;;;;;;;;;;5070933;28;20044;-44
2022/12/06 03:55:30;;;;;;;2.50;1.85;;;;;;;;;;5074935;28;20070;-43
2022/12/06 03:57:56;;;;;;;2.60;1.45;;;;;;;;;;5074093;28;20025;-45
2022/12/06 04:00:22;;;;;;;2.15;1.73;;;;;;;;;;5065434;28;20044;-44
2022/12/06 04:02:48;;;;;;;2.00;1.52;;;;;;;;;;5066396;28;20029;-43
2022/12/06 04:05:14;;;;;;;2.90;1.92;;;;;;;;;;5064492;28;20032;-43
2022/12/06 04:07:40;;;;;;;2.33;1.60;;;;;;;;;;5074468;28;20032;-43
2022/12/06 04:10:06;;;;;;;2.05;1.60;;;;;;;;;;5073096;28;20033;-43
2022/12/06 04:15:30;;;;;;;4.20;1.85;;;;;;;;;;5045841;28;20473;-43
2022/12/06 04:18:17;;;;;;;3.95;2.00;;;;;;;;;;5073352;28;20025;-45
2022/12/06 04:23:36;;;;;;;2.95;1.90;;;;;;;;;;5072848;28;20441;-43
2022/12/06 04:26:03;;;;;;;2.28;2.03;;;;;;;;;;5063945;28;20405;-43
2022/12/06 04:39:30;;;;;;;2.10;1.52;;;;;;;;;;5073284;28;20039;-43
2022/12/06 04:44:41;;;;;;;2.47;1.55;;;;;;;;;;5073452;28;20117;-43
2022/12/06 04:47:07;;;;;;;2.22;1.63;;;;;;;;;;5072772;28;20107;-44
2022/12/06 04:49:33;;;;;;;2.45;1.80;;;;;;;;;;5073945;28;20025;-43
2022/12/06 04:51:59;;;;;;;2.90;1.60;;;;;;;;;;5063193;28;20020;-46
2022/12/06 04:54:26;;;;;;;3.22;1.83;;;;;;;;;;5073155;28;20055;-43
2022/12/06 04:56:52;;;;;;;2.67;1.80;;;;;;;;;;5073453;28;20032;-43
2022/12/06 04:59:19;;;;;;;2.75;1.60;;;;;;;;;;5069087;28;20099;-44
2022/12/06 05:01:45;;;;;;;2.45;1.85;;;;;;;;;;5072510;28;20059;-43
2022/12/06 05:04:11;;;;;;;3.85;2.00;;;;;;;;;;5054972;28;20029;-43
2022/12/06 05:06:37;;;;;;;2.47;1.73;;;;;;;;;;5054717;28;21271;-43
2022/12/06 05:09:03;;;;;;;4.32;1.67;;;;;;;;;;5072563;28;20020;-43
2022/12/06 05:11:29;;;;;;;2.35;1.83;;;;;;;;;;5072862;28;20025;-43
2022/12/06 05:13:55;;;;;;;2.03;1.67;;;;;;;;;;5071260;28;20105;-43
2022/12/06 05:16:21;;;;;;;2.35;1.67;;;;;;;;;;5072259;28;20017;-45
2022/12/06 05:18:47;;;;;;;2.03;1.52;;;;;;;;;;5072810;28;20032;-43
2022/12/06 05:21:15;;;;;;;2.38;1.60;;;;;;;;;;5067458;28;20028;-44
2022/12/06 05:23:41;;;;;;;2.40;1.65;;;;;;;;;;5063928;28;20029;-43
2022/12/06 05:26:11;;;;;;;1.75;1.42;;;;;;;;;;5071672;28;20032;-43
2022/12/06 05:28:37;;;;;;;1.95;1.52;;;;;;;;;;5073088;28;20032;-44
2022/12/06 05:31:03;;;;;;;2.60;1.75;;;;;;;;;;5071615;28;20029;-44
2022/12/06 05:33:29;;;;;;;2.17;1.40;;;;;;;;;;5071569;28;20036;-43
2022/12/06 05:35:55;;;;;;;3.20;2.05;;;;;;;;;;5066315;28;20074;-43
2022/12/06 05:38:22;;;;;;;2.47;1.80;;;;;;;;;;5071835;28;20032;-43
2022/12/06 05:40:48;;;;;;;2.53;1.73;;;;;;;;;;5067792;28;20032;-44
2022/12/06 05:43:14;;;;;;;2.92;1.70;;;;;;;;;;5074084;28;20385;-43
2022/12/06 05:45:40;;;;;;;2.22;1.45;;;;;;;;;;5072618;28;20031;-43
2022/12/06 05:48:07;;;;;;;2.28;1.55;;;;;;;;;;5071664;28;20025;-43
2022/12/06 05:50:33;;;;;;;2.42;1.70;;;;;;;;;;5070910;28;20495;-43
2022/12/06 05:53:00;;;;;;;2.80;1.67;;;;;;;;;;5069703;28;20103;-47
2022/12/06 05:55:26;;;;;;;2.45;1.50;;;;;;;;;;5072748;28;20025;-44
2022/12/06 05:57:52;;;;;;;2.08;1.58;;;;;;;;;;5063575;28;20106;-46
2022/12/06 06:00:19;;;;;;;2.50;1.45;;;;;;;;;;5069868;28;20572;-44
2022/12/06 06:02:45;;;;;;;2.30;1.73;;;;;;;;;;5070449;28;20020;-43
2022/12/06 06:05:11;;;;;;;2.03;1.75;;;;;;;;;;5061790;28;20033;-43
2022/12/06 06:07:37;;;;;;;2.30;1.63;;;;;;;;;;5068856;28;20107;-43
2022/12/06 06:10:04;;;;;;;2.30;1.90;;;;;;;;;;5070913;28;20024;-46
2022/12/06 06:12:30;;;;;;;1.70;1.50;;;;;;;;;;5071171;28;20359;-43
2022/12/06 06:14:56;;;;;;;2.50;1.60;;;;;;;;;;5064361;28;20048;-46
2022/12/06 06:17:23;;;;;;;1.70;1.40;;;;;;;;;;5063503;28;20070;-43
2022/12/06 06:19:49;;;;;;;2.05;1.50;;;;;;;;;;5070991;28;20458;-43
2022/12/06 06:22:15;;;;;;;2.35;1.80;;;;;;;;;;5058195;28;20021;-43
2022/12/06 06:24:41;;;;;;;2.30;1.73;;;;;;;;;;5071720;28;20036;-43
2022/12/06 06:27:08;;;;;;;2.75;1.83;;;;;;;;;;5070450;28;20031;-43
2022/12/06 06:29:34;;;;;;;2.40;1.90;;;;;;;;;;5071410;28;20028;-44
2022/12/06 06:32:00;;;;;;;2.92;1.52;;;;;;;;;;5062242;28;20025;-44
2022/12/06 06:34:26;;;;;;;2.25;1.58;;;;;;;;;;5062476;28;20385;-43
2022/12/06 06:36:52;;;;;;;2.17;1.50;;;;;;;;;;5059582;28;20029;-43
2022/12/06 06:39:18;;;;;;;3.25;1.50;;;;;;;;;;5070882;28;20043;-44
2022/12/06 06:41:45;;;;;;;5.00;1.40;;;;;;;;;;5069926;28;20039;-43
2022/12/06 06:44:11;;;;;;;4.80;1.58;;;;;;;;;;5070693;28;20028;-43
2022/12/06 06:46:37;;;;;;;2.85;1.50;;;;;;;;;;5062788;28;20033;-43
2022/12/06 06:49:03;;;;;;;5.40;1.80;;;;;;;;;;5061792;28;20043;-44
2022/12/06 06:51:33;;;;;;;6.13;1.55;;;;;;;;;;5057192;28;20024;-43
2022/12/06 06:53:59;;;;;;;4.25;1.80;;;;;;;;;;5062393;28;20056;-46
2022/12/06 06:56:25;;;;;;;3.70;1.77;;;;;;;;;;5067434;28;20531;-43
2022/12/06 06:58:52;;;;;;;3.05;1.80;;;;;;;;;;5059314;28;20017;-42
2022/12/06 07:01:19;;;;;;;2.83;1.70;;;;;;;;;;5065320;28;20032;-42
2022/12/06 07:03:45;;;;;;;3.45;1.60;;;;;;;;;;5071281;28;20055;-42
2022/12/06 07:06:11;;;;;;;2.63;1.60;;;;;;;;;;5068560;28;20529;-42
2022/12/06 07:08:38;;;;;;;4.03;2.22;;;;;;;;;;5057468;28;20370;-42
2022/12/06 07:11:04;;;;;;;7.65;2.35;;;;;;;;;;5066709;28;20025;-42
2022/12/06 07:13:30;;;;;;;5.80;1.75;;;;;;;;;;5066628;28;20032;-43
2022/12/06 07:15:57;;;;;;;7.65;1.85;;;;;;;;;;5057481;28;20033;-46
2022/12/06 07:18:24;;;;;;;3.10;1.70;;;;;;;;;;5066572;28;20020;-42
2022/12/06 07:20:57;;;;;;;5.22;1.90;;;;;;;;;;5060594;28;20041;-42
2022/12/06 07:23:23;;;;;;;4.28;2.22;;;;;;;;;;5059456;28;20037;-43
2022/12/06 07:25:58;;;;;;;3.75;1.58;;;;;;;;;;5069680;28;20401;-42
2022/12/06 07:28:24;;;;;;;8.55;2.30;;;;;;;;;;5064131;28;20032;-43
2022/12/06 07:30:50;;;;;;;4.47;2.00;;;;;;;;;;5064554;28;20044;-43
2022/12/06 07:33:16;;;;;;;5.30;2.70;;;;;;;;;;5064230;28;20032;-44
2022/12/06 07:35:42;;;;;;;4.55;2.53;;;;;;;;;;5059074;28;20066;-43
2022/12/06 07:38:08;;;;;;;4.95;2.47;;;;;;;;;;5067222;28;20024;-42
2022/12/06 07:40:34;;;;;;;5.63;3.00;;;;;;;;;;5061631;28;20112;-43
2022/12/06 07:45:44;;;;;;;9.50;3.25;;;;;;;;;;5064565;28;20039;-43
2022/12/06 07:48:10;;;;;;;5.53;3.28;;;;;;;;;;5066791;28;20382;-43
2022/12/06 07:50:36;;;;;;;7.30;3.40;;;;;;;;;;5062268;28;20044;-41
2022/12/06 07:53:02;;;;;;;6.60;2.90;;;;;;;;;;5067242;28;20039;-46
2022/12/06 07:55:28;;;;;;;6.07;3.17;;;;;;;;;;5061865;28;20045;-43
2022/12/06 07:57:54;;;;;;;5.68;3.50;;;;;;;;;;5069077;28;20039;-43
2022/12/06 08:00:20;;;;;;;5.43;3.50;;;;;;;;;;5057994;28;20115;-43
2022/12/06 08:02:46;;;;;;;4.70;2.85;;;;;;;;;;5068704;28;20048;-43
2022/12/06 08:05:12;;;;;;;4.60;2.38;;;;;;;;;;5058904;28;20051;-42
2022/12/06 08:07:38;;;;;;;7.32;3.28;;;;;;;;;;5065765;28;20084;-42
2022/12/06 08:10:05;;;;;;;6.60;2.65;;;;;;;;;;5062443;28;20431;-43
2022/12/06 08:12:31;;;;;;;5.45;3.15;;;;;;;;;;5064104;28;20045;-43
2022/12/06 08:14:57;;;;;;;5.15;2.70;;;;;;;;;;5063631;28;20071;-45
2022/12/06 08:17:24;;;;;;;4.20;2.45;;;;;;;;;;5072040;28;20817;-43
2022/12/06 08:19:50;;;;;;;4.85;2.40;;;;;;;;;;5065668;28;20041;-43
2022/12/06 08:22:16;;;;;;;4.88;2.40;;;;;;;;;;5068076;28;20032;-44
2022/12/06 08:24:42;;;;;;;3.72;2.40;;;;;;;;;;5068668;28;20048;-42
2022/12/06 08:27:08;;;;;;;4.20;2.30;;;;;;;;;;5071585;28;20513;-43
2022/12/06 08:29:34;;;;;;;4.72;2.28;;;;;;;;;;5069643;28;20040;-42
2022/12/06 08:32:00;;;;;;;5.32;2.67;;;;;;;;;;5071027;28;20372;-46
2022/12/06 08:34:26;;;;;;;2.45;1.85;;;;;;;;;;5070174;28;20062;-42
2022/12/06 08:36:52;;;;;;;4.03;2.22;;;;;;;;;;5071785;28;20456;-43
2022/12/06 08:39:18;;;;;;;3.60;2.28;;;;;;;;;;5069863;28;20056;-42
2022/12/06 08:41:57;;;;;;;4.53;2.20;;;;;;;;;;5067507;28;20039;-42
2022/12/06 08:44:23;;;;;;;5.60;2.25;;;;;;;;;;5067387;28;20043;-43
2022/12/06 08:46:51;;;;;;;2.85;1.88;;;;;;;;;;5071360;28;20033;-42
2022/12/06 08:49:17;;;;;;;3.58;2.20;;;;;;;;;;5066608;28;20025;-43
2022/12/06 08:51:43;;;;;;;3.83;2.35;;;;;;;;;;5065911;28;20044;-42
2022/12/06 08:54:12;;;;;;;2.50;1.85;;;;;;;;;;5061079;28;20438;-42
2022/12/06 08:56:38;;;;;;;5.45;2.20;;;;;;;;;;5066036;28;20029;-43
2022/12/06 08:59:04;;;;;;;4.22;2.50;;;;;;;;;;5065712;28;20019;-44
2022/12/06 09:01:31;;;;;;;4.50;1.88;;;;;;;;;;5072656;28;20055;-43
2022/12/06 09:04:01;;;;;;;2.92;2.00;;;;;;;;;;5063620;28;20028;-45
2022/12/06 09:06:27;;;;;;;2.60;1.92;;;;;;;;;;5047418;28;20068;-42
2022/12/06 09:08:54;;;;;;;3.95;1.90;;;;;;;;;;5066238;28;20021;-42
2022/12/06 09:11:21;;;;;;;3.05;1.77;;;;;;;;;;5061574;28;20044;-42
2022/12/06 09:13:47;;;;;;;4.00;1.88;;;;;;;;;;5062934;28;20049;-41
2022/12/06 09:16:15;;;;;;;4.00;1.80;;;;;;;;;;5070844;28;20051;-41
2022/12/06 09:18:41;;;;;;;4.65;2.08;;;;;;;;;;5067436;28;20480;-42
2022/12/06 09:21:08;;;;;;;2.55;1.85;;;;;;;;;;5061388;28;20047;-44
2022/12/06 09:23:35;;;;;;;3.10;1.88;;;;;;;;;;5062770;28;20476;-42
2022/12/06 09:26:01;;;;;;;3.47;2.10;;;;;;;;;;5070994;28;20025;-45
2022/12/06 09:28:28;;;;;;;2.90;1.90;;;;;;;;;;5068499;28;20021;-43
2022/12/06 09:30:54;;;;;;;2.75;1.85;;;;;;;;;;5068275;28;20033;-42
2022/12/06 09:33:21;;;;;;;3.45;1.67;;;;;;;;;;5067541;28;20032;-43
2022/12/06 09:35:47;;;;;;;4.25;1.70;;;;;;;;;;5071244;28;20028;-43
2022/12/06 09:38:13;;;;;;;2.13;1.15;;;;;;;;;;5068146;28;20500;-43
2022/12/06 09:40:47;;;;;;;4.45;1.75;;;;;;;;;;5058230;28;20028;-43
2022/12/06 09:43:25;;;;;;;3.45;1.95;;;;;;;;;;5064916;28;20029;-43
2022/12/06 09:45:57;;;;;;;2.45;1.63;;;;;;;;;;5061083;28;20174;-43
2022/12/06 09:48:29;;;;;;;5.38;1.77;;;;;;;;;;5066129;28;20110;-45
2022/12/06 09:51:03;;;;;;;3.33;1.52;;;;;;;;;;5059913;28;20028;-43
2022/12/06 09:53:41;;;;;;;1.98;1.42;;;;;;;;;;5067346;28;20049;-43
2022/12/06 09:56:14;;;;;;;2.85;1.60;;;;;;;;;;5069227;28;20040;-44
2022/12/06 09:58:40;;;;;;;3.13;2.00;;;;;;;;;;5061618;28;20103;-44
2022/12/06 10:01:09;;;;;;;5.88;1.70;;;;;;;;;;5065987;28;20132;-43
2022/12/06 10:03:40;;;;;;;2.67;1.48;;;;;;;;;;5047204;28;20017;-43
2022/12/06 10:06:11;;;;;;;3.67;1.42;;;;;;;;;;5067357;28;20041;-43
2022/12/06 10:08:56;;;;;;;2.40;1.55;;;;;;;;;;5065380;28;20021;-43
2022/12/06 10:11:25;;;;;;;2.55;1.50;;;;;;;;;;5063642;28;20045;-44
2022/12/06 10:13:54;;;;;;;2.85;1.50;;;;;;;;;;5059671;28;20116;-42
2022/12/06 10:16:23;;;;;;;4.00;1.70;;;;;;;;;;5068493;28;20040;-45
2022/12/06 10:18:57;;;;;;;4.25;1.88;;;;;;;;;;5069884;28;20346;-42
2022/12/06 10:21:25;;;;;;;4.47;1.40;;;;;;;;;;5063074;28;20045;-44
2022/12/06 10:23:57;;;;;;;4.45;2.13;;;;;;;;;;5067208;28;20039;-42
2022/12/06 10:26:30;;;;;;;2.63;1.52;;;;;;;;;;5069167;28;20202;-44
2022/12/06 10:28:56;;;;;;;4.47;2.00;;;;;;;;;;5068501;28;20459;-44
2022/12/06 10:31:42;;;;;;;2.47;1.77;;;;;;;;;;5066518;28;20107;-44
2022/12/06 10:34:22;;;;;;;2.40;1.60;;;;;;;;;;5056073;28;20401;-43
2022/12/06 10:37:11;;;;;;;3.67;2.03;;;;;;;;;;5067072;28;20036;-43
2022/12/06 10:39:46;;;;;;;2.20;1.77;;;;;;;;;;5030324;28;20028;-43
2022/12/06 10:42:16;;;;;;;3.42;1.75;;;;;;;;;;5057630;28;20051;-43
2022/12/06 10:44:47;;;;;;;2.40;1.40;;;;;;;;;;5058340;28;20079;-42
2022/12/06 10:47:36;;;;;;;3.30;1.97;;;;;;;;;;5066312;28;20047;-42
2022/12/06 10:50:07;;;;;;;3.85;1.80;;;;;;;;;;5061190;28;20401;-44
2022/12/06 10:52:43;;;;;;;1.98;1.33;;;;;;;;;;5065450;28;20033;-44
2022/12/06 10:55:09;;;;;;;7.15;2.13;;;;;;;;;;5059378;28;20462;-43
2022/12/06 10:57:41;;;;;;;2.75;1.70;;;;;;;;;;5064818;28;20107;-42
2022/12/06 11:00:20;;;;;;;1.67;1.58;;;;;;;;;;5064813;28;20025;-43
2022/12/06 11:03:10;;;;;;;2.97;1.83;;;;;;;;;;5066506;28;20048;-41
2022/12/06 11:05:53;;;;;;;2.60;1.73;;;;;;;;;;5064085;28;20106;-44
2022/12/06 11:08:30;;;;;;;3.88;1.83;;;;;;;;;;5057674;28;20036;-44
2022/12/06 11:10:58;;;;;;;8.95;2.22;;;;;;;;;;5066964;28;20021;-45
2022/12/06 11:13:36;;;;;;;3.83;1.77;;;;;;;;;;5064955;28;20037;-44
2022/12/06 11:16:09;;;;;;;3.45;1.60;;;;;;;;;;5067242;28;20120;-45
2022/12/06 11:18:36;;;;;;;3.72;1.40;;;;;;;;;;5064967;28;20036;-43
2022/12/06 11:21:14;;;;;;;3.00;1.30;;;;;;;;;;5064681;28;20159;-46
2022/12/06 11:23:53;;;;;;;2.67;1.52;;;;;;;;;;5066714;28;20359;-43
2022/12/06 11:26:23;;;;;;;2.92;1.50;;;;;;;;;;5069028;28;20053;-43
2022/12/06 11:28:58;;;;;;;4.35;2.20;;;;;;;;;;5067407;28;20051;-44
2022/12/06 11:31:26;;;;;;;4.40;1.45;;;;;;;;;;5066169;28;20159;-43
2022/12/06 11:33:52;;;;;;;2.30;1.65;;;;;;;;;;5068548;28;20044;-40
2022/12/06 11:36:19;;;;;;;2.00;1.35;;;;;;;;;;5068793;28;20100;-44
2022/12/06 11:38:46;;;;;;;4.15;1.30;;;;;;;;;;5064243;28;20033;-42
2022/12/06 11:41:17;;;;;;;2.65;1.63;;;;;;;;;;5066589;28;20032;-43
2022/12/06 11:43:43;;;;;;;7.55;1.95;;;;;;;;;;5063949;28;20034;-43
2022/12/06 11:46:10;;;;;;;3.10;1.80;;;;;;;;;;5070084;28;20025;-41
2022/12/06 11:48:36;;;;;;;3.97;1.40;;;;;;;;;;5061154;28;20760;-41
2022/12/06 11:51:07;;;;;;;4.72;1.38;;;;;;;;;;5067254;28;20037;-45
2022/12/06 11:53:41;;;;;;;2.83;1.45;;;;;;;;;;5065943;28;20041;-43
2022/12/06 11:56:14;;;;;;;2.55;1.38;;;;;;;;;;5069321;28;20031;-43
2022/12/06 11:58:49;;;;;;;3.08;1.42;;;;;;;;;;5067968;28;20088;-42
2022/12/06 12:01:15;;;;;;;2.75;1.20;;;;;;;;;;5072008;28;20485;-43
2022/12/06 12:03:43;;;;;;;2.25;1.40;;;;;;;;;;5068476;28;20072;-42
2022/12/06 12:06:17;;;;;;;5.75;1.88;;;;;;;;;;5069826;28;20048;-42
2022/12/06 12:09:05;;;;;;;2.55;1.58;;;;;;;;;;5067466;28;20036;-43
2022/12/06 12:11:34;;;;;;;3.88;1.67;;;;;;;;;;5066389;28;20024;-42
2022/12/06 12:14:05;;;;;;;3.63;1.20;;;;;;;;;;5066994;28;20157;-45
2022/12/06 12:16:42;;;;;;;2.35;1.30;;;;;;;;;;5072504;28;20040;-42
2022/12/06 12:19:26;;;;;;;3.53;1.40;;;;;;;;;;5071299;28;20470;-42
2022/12/06 12:21:59;;;;;;;6.07;1.58;;;;;;;;;;5066733;28;20017;-43
2022/12/06 12:24:43;;;;;;;2.17;1.60;;;;;;;;;;5070859;28;20047;-43
2022/12/06 12:27:29;;;;;;;2.45;1.27;;;;;;;;;;5071539;28;20048;-43
2022/12/06 12:30:14;;;;;;;1.95;1.20;;;;;;;;;;5070333;28;20103;-43
2022/12/06 12:32:41;;;;;;;2.63;1.17;;;;;;;;;;5065678;28;20021;-43
2022/12/06 12:35:27;;;;;;;2.22;1.63;;;;;;;;;;5069943;28;20385;-42
2022/12/06 12:37:57;;;;;;;2.40;1.15;;;;;;;;;;5071885;28;20055;-43
2022/12/06 12:40:28;;;;;;;1.63;1.15;;;;;;;;;;5063228;28;20098;-44
2022/12/06 12:43:02;;;;;;;2.28;1.30;;;;;;;;;;5071844;28;20548;-42
2022/12/06 12:45:29;;;;;;;3.55;1.08;;;;;;;;;;5067303;28;20024;-39
2022/12/06 12:47:59;;;;;;;4.43;1.90;;;;;;;;;;5072281;28;20021;-42
2022/12/06 12:50:25;;;;;;;8.90;2.22;;;;;;;;;;5066391;28;20028;-43
2022/12/06 12:52:51;;;;;;;2.88;1.40;;;;;;;;;;5071437;28;20048;-43
2022/12/06 12:55:28;;;;;;;1.85;1.17;;;;;;;;;;5059834;28;20379;-43
2022/12/06 12:57:55;;;;;;;7.55;1.63;;;;;;;;;;5072093;28;20031;-43
2022/12/06 13:00:21;;;;;;;1.95;1.30;;;;;;;;;;5062556;28;20070;-44
2022/12/06 13:02:50;;;;;;;4.47;1.27;;;;;;;;;;5072305;28;20021;-43
2022/12/06 13:05:24;;;;;;;1.58;0.90;;;;;;;;;;5061648;28;20386;-43
2022/12/06 13:07:52;;;;;;;3.88;1.23;;;;;;;;;;5073428;28;20036;-43
2022/12/06 13:10:32;;;;;;;1.13;0.90;;;;;;;;;;5065982;28;20050;-43
2022/12/06 13:13:00;;;;;;;1.77;1.13;;;;;;;;;;5067889;28;20032;-44
2022/12/06 13:15:32;;;;;;;2.17;1.05;;;;;;;;;;5067409;28;20123;-43
2022/12/06 13:18:00;;;;;;;1.77;0.80;;;;;;;;;;5071828;28;20020;-45
2022/12/06 13:20:28;;;;;;;2.33;1.00;;;;;;;;;;5062683;28;20050;-42
2022/12/06 13:22:56;;;;;;;1.75;1.10;;;;;;;;;;5069830;28;20016;-43
2022/12/06 13:25:22;;;;;;;6.80;1.92;;;;;;;;;;5064075;28;20075;-43
2022/12/06 13:27:50;;;;;;;4.60;1.13;;;;;;;;;;5068002;28;20025;-43
2022/12/06 13:30:21;;;;;;;9.50;1.30;;;;;;;;;;5062532;28;20064;-43
2022/12/06 13:32:50;;;;;;;1.60;1.00;;;;;;;;;;5067893;28;20074;-44
2022/12/06 13:35:19;;;;;;;1.35;0.88;;;;;;;;;;5058555;28;20504;-44
2022/12/06 13:37:51;;;;;;;2.05;1.02;;;;;;;;;;5071265;28;20082;-43
2022/12/06 13:40:32;;;;;;;2.08;1.30;;;;;;;;;;5061653;28;20044;-43
2022/12/06 13:42:59;;;;;;;1.60;0.90;;;;;;;;;;5069955;28;20074;-45
2022/12/06 13:45:44;;;;;;;1.90;1.20;;;;;;;;;;5060909;28;20036;-43
2022/12/06 13:48:25;;;;;;;1.27;1.10;;;;;;;;;;5066148;28;20082;-41
2022/12/06 13:50:51;;;;;;;1.30;1.10;;;;;;;;;;5066734;28;20084;-43
2022/12/06 13:53:18;;;;;;;4.47;1.75;;;;;;;;;;5058879;28;20052;-44
2022/12/06 13:55:59;;;;;;;2.40;1.10;;;;;;;;;;5073578;28;20044;-44
2022/12/06 13:58:25;;;;;;;1.88;0.95;;;;;;;;;;5062958;28;20481;-44
2022/12/06 14:00:53;;;;;;;1.20;0.80;;;;;;;;;;5072543;28;20115;-42
2022/12/06 14:03:19;;;;;;;1.70;1.10;;;;;;;;;;5062756;28;20017;-42
2022/12/06 14:05:57;;;;;;;1.75;1.20;;;;;;;;;;5066677;28;20024;-42
2022/12/06 14:08:30;;;;;;;1.15;0.90;;;;;;;;;;5059916;28;20032;-41
2022/12/06 14:11:14;;;;;;;3.40;1.08;;;;;;;;;;5061437;28;20544;-42
2022/12/06 14:13:41;;;;;;;2.22;1.13;;;;;;;;;;5068413;28;20041;-41
2022/12/06 14:16:08;;;;;;;1.70;1.17;;;;;;;;;;5064644;28;20068;-42
2022/12/06 14:18:34;;;;;;;1.10;1.00;;;;;;;;;;5056617;28;20098;-42
2022/12/06 14:21:01;;;;;;;2.22;0.80;;;;;;;;;;5063817;28;20025;-44
2022/12/06 14:23:29;;;;;;;2.85;1.20;;;;;;;;;;5065610;28;20021;-42
2022/12/06 14:26:12;;;;;;;1.95;0.98;;;;;;;;;;5070546;28;20048;-40
2022/12/06 14:28:38;;;;;;;1.77;0.93;;;;;;;;;;5058772;28;20072;-41
2022/12/06 14:31:16;;;;;;;0.95;0.75;;;;;;;;;;5060334;28;20512;-42
2022/12/06 14:33:43;;;;;;;3.38;0.93;;;;;;;;;;5069181;28;20036;-42
2022/12/06 14:36:15;;;;;;;2.13;1.00;;;;;;;;;;5070427;28;20033;-44
2022/12/06 14:38:41;;;;;;;1.75;1.10;;;;;;;;;;5062189;28;20013;-43
2022/12/06 14:44:12;;;;;;;2.20;1.00;;;;;;;;;;5030352;28;20112;-44
2022/12/06 14:46:38;;;;;;;1.10;0.90;;;;;;;;;;5063595;28;20037;-44
2022/12/06 14:51:51;;;;;;;1.45;0.98;;;;;;;;;;5069859;28;20071;-43
2022/12/06 14:54:26;;;;;;;1.67;1.30;;;;;;;;;;5048585;28;20119;-45
2022/12/06 14:56:52;;;;;;;2.13;0.80;;;;;;;;;;5067306;28;20028;-43
2022/12/06 14:59:20;;;;;;;1.65;1.20;;;;;;;;;;5067233;28;20016;-44
2022/12/06 15:01:47;;;;;;;0.88;0.73;;;;;;;;;;5068203;28;20492;-44
2022/12/06 15:04:24;;;;;;;1.42;1.05;;;;;;;;;;5061585;28;20074;-44
2022/12/06 15:06:51;;;;;;;0.80;0.70;;;;;;;;;;5057944;28;20139;-45
2022/12/06 15:09:20;;;;;;;1.50;1.08;;;;;;;;;;5060042;28;20049;-44
2022/12/06 15:14:34;;;;;;;1.67;1.05;;;;;;;;;;5062004;28;20067;-43
2022/12/06 15:17:04;;;;;;;3.20;1.02;;;;;;;;;;5068994;28;20060;-46
2022/12/06 15:19:31;;;;;;;3.33;1.00;;;;;;;;;;5067160;28;20071;-44
2022/12/06 15:21:57;;;;;;;2.05;1.17;;;;;;;;;;5068541;28;20033;-44
2022/12/06 15:24:24;;;;;;;2.03;1.15;;;;;;;;;;5071325;28;20527;-45
2022/12/06 15:26:50;;;;;;;6.03;1.50;;;;;;;;;;5073926;28;20040;-44